sensor_id;sensor_type;location;lat;lon;timestamp;temperature;humidity
51793;DHT22;37850;53.178;6.376;2022-10-16T00:01:51;12.40;99.90
51793;DHT22;37850;53.178;6.376;2022-10-16T00:04:17;12.40;99.90
51793;DHT22;37850;53.178;6.376;2022-10-16T00:06:43;12.40;99.90
51793;DHT22;37850;53.178;6.376;2022-10-16T00:09:08;12.40;99.90
51793;DHT22;37850;53.178;6.376;2022-10-16T00:11:36;12.40;99.90
51793;DHT22;37850;53.178;6.376;2022-10-16T00:14:04;12.40;99.90
51793;DHT22;37850;53.178;6.376;2022-10-16T00:16:30;12.40;99.90
51793;DHT22;37850;53.178;6.376;2022-10-16T00:18:56;12.40;99.90
51793;DHT22;37850;53.178;6.376;2022-10-16T00:21:24;12.40;99.90
51793;DHT22;37850;53.178;6.376;2022-10-16T00:23:55;12.40;99.90
51793;DHT22;37850;53.178;6.376;2022-10-16T00:26:21;12.40;99.90
51793;DHT22;37850;53.178;6.376;2022-10-16T00:28:48;12.40;99.90
51793;DHT22;37850;53.178;6.376;2022-10-16T00:31:15;12.40;99.90
51793;DHT22;37850;53.178;6.376;2022-10-16T00:33:41;12.40;99.90
51793;DHT22;37850;53.178;6.376;2022-10-16T00:36:10;12.40;99.90
51793;DHT22;37850;53.178;6.376;2022-10-16T00:38:36;12.40;99.90
51793;DHT22;37850;53.178;6.376;2022-10-16T00:41:03;12.40;99.90
51793;DHT22;37850;53.178;6.376;2022-10-16T00:46:26;12.40;99.90
51793;DHT22;37850;53.178;6.376;2022-10-16T00:49:09;12.40;99.90
51793;DHT22;37850;53.178;6.376;2022-10-16T00:51:50;12.40;99.90
51793;DHT22;37850;53.178;6.376;2022-10-16T00:56:47;12.40;99.90
51793;DHT22;37850;53.178;6.376;2022-10-16T00:59:20;12.40;99.90
51793;DHT22;37850;53.178;6.376;2022-10-16T01:01:48;12.40;99.90
51793;DHT22;37850;53.178;6.376;2022-10-16T01:04:14;12.40;99.90
51793;DHT22;37850;53.178;6.376;2022-10-16T01:12:14;12.40;99.90
51793;DHT22;37850;53.178;6.376;2022-10-16T01:14:59;12.40;99.90
51793;DHT22;37850;53.178;6.376;2022-10-16T01:17:37;12.40;99.90
51793;DHT22;37850;53.178;6.376;2022-10-16T01:20:10;12.40;99.90
51793;DHT22;37850;53.178;6.376;2022-10-16T01:25:30;12.40;99.90
51793;DHT22;37850;53.178;6.376;2022-10-16T01:27:57;12.40;99.90
51793;DHT22;37850;53.178;6.376;2022-10-16T01:30:30;12.50;99.90
51793;DHT22;37850;53.178;6.376;2022-10-16T01:33:02;12.40;99.90
51793;DHT22;37850;53.178;6.376;2022-10-16T01:35:36;12.50;99.90
51793;DHT22;37850;53.178;6.376;2022-10-16T01:38:29;12.50;99.90
51793;DHT22;37850;53.178;6.376;2022-10-16T01:41:11;12.50;99.90
51793;DHT22;37850;53.178;6.376;2022-10-16T01:43:42;12.50;99.90
51793;DHT22;37850;53.178;6.376;2022-10-16T01:46:10;12.50;99.90
51793;DHT22;37850;53.178;6.376;2022-10-16T01:48:37;12.50;99.90
51793;DHT22;37850;53.178;6.376;2022-10-16T01:51:08;12.50;99.90
51793;DHT22;37850;53.178;6.376;2022-10-16T01:53:34;12.50;99.90
51793;DHT22;37850;53.178;6.376;2022-10-16T01:56:02;12.50;99.90
51793;DHT22;37850;53.178;6.376;2022-10-16T01:58:30;12.60;99.90
51793;DHT22;37850;53.178;6.376;2022-10-16T02:01:01;12.60;99.90
51793;DHT22;37850;53.178;6.376;2022-10-16T02:03:28;12.60;99.90
51793;DHT22;37850;53.178;6.376;2022-10-16T02:05:56;12.60;99.90
51793;DHT22;37850;53.178;6.376;2022-10-16T02:08:25;12.60;99.90
51793;DHT22;37850;53.178;6.376;2022-10-16T02:10:55;12.60;99.90
51793;DHT22;37850;53.178;6.376;2022-10-16T02:13:33;12.60;99.90
51793;DHT22;37850;53.178;6.376;2022-10-16T02:15:59;12.60;99.90
51793;DHT22;37850;53.178;6.376;2022-10-16T02:18:25;12.60;99.90
51793;DHT22;37850;53.178;6.376;2022-10-16T02:21:06;12.60;99.90
51793;DHT22;37850;53.178;6.376;2022-10-16T02:26:17;12.70;99.90
51793;DHT22;37850;53.178;6.376;2022-10-16T02:28:52;12.70;99.90
51793;DHT22;37850;53.178;6.376;2022-10-16T02:31:24;12.70;99.90
51793;DHT22;37850;53.178;6.376;2022-10-16T02:33:53;12.70;99.90
51793;DHT22;37850;53.178;6.376;2022-10-16T02:36:20;12.70;99.90
51793;DHT22;37850;53.178;6.376;2022-10-16T02:38:47;12.70;99.90
51793;DHT22;37850;53.178;6.376;2022-10-16T02:41:13;12.70;99.90
51793;DHT22;37850;53.178;6.376;2022-10-16T02:43:39;12.70;99.90
51793;DHT22;37850;53.178;6.376;2022-10-16T02:46:05;12.70;99.90
51793;DHT22;37850;53.178;6.376;2022-10-16T02:48:31;12.70;99.90
51793;DHT22;37850;53.178;6.376;2022-10-16T02:50:57;12.70;99.90
51793;DHT22;37850;53.178;6.376;2022-10-16T02:53:22;12.70;99.90
51793;DHT22;37850;53.178;6.376;2022-10-16T02:55:48;12.60;99.90
51793;DHT22;37850;53.178;6.376;2022-10-16T02:58:14;12.60;99.90
51793;DHT22;37850;53.178;6.376;2022-10-16T03:00:40;12.60;99.90
51793;DHT22;37850;53.178;6.376;2022-10-16T03:03:06;12.60;99.90
51793;DHT22;37850;53.178;6.376;2022-10-16T03:05:31;12.60;99.90
51793;DHT22;37850;53.178;6.376;2022-10-16T03:07:57;12.60;99.90
51793;DHT22;37850;53.178;6.376;2022-10-16T03:10:25;12.80;99.90
51793;DHT22;37850;53.178;6.376;2022-10-16T03:12:51;12.60;99.90
51793;DHT22;37850;53.178;6.376;2022-10-16T03:15:16;12.60;99.90
51793;DHT22;37850;53.178;6.376;2022-10-16T03:17:42;12.60;99.90
51793;DHT22;37850;53.178;6.376;2022-10-16T03:20:09;12.60;99.90
51793;DHT22;37850;53.178;6.376;2022-10-16T03:22:34;12.60;99.90
51793;DHT22;37850;53.178;6.376;2022-10-16T03:25:00;12.70;99.90
51793;DHT22;37850;53.178;6.376;2022-10-16T03:27:26;12.60;99.90
51793;DHT22;37850;53.178;6.376;2022-10-16T03:29:52;12.70;99.90
51793;DHT22;37850;53.178;6.376;2022-10-16T03:32:17;12.60;99.90
51793;DHT22;37850;53.178;6.376;2022-10-16T03:34:44;12.60;99.90
51793;DHT22;37850;53.178;6.376;2022-10-16T03:37:10;12.60;99.90
51793;DHT22;37850;53.178;6.376;2022-10-16T03:39:35;12.60;99.90
51793;DHT22;37850;53.178;6.376;2022-10-16T03:42:01;12.60;99.90
51793;DHT22;37850;53.178;6.376;2022-10-16T03:44:27;12.60;99.90
51793;DHT22;37850;53.178;6.376;2022-10-16T03:46:52;12.60;99.90
51793;DHT22;37850;53.178;6.376;2022-10-16T03:49:21;12.60;99.90
51793;DHT22;37850;53.178;6.376;2022-10-16T03:51:46;12.60;99.90
51793;DHT22;37850;53.178;6.376;2022-10-16T03:54:12;12.60;99.90
51793;DHT22;37850;53.178;6.376;2022-10-16T03:56:38;12.60;99.90
51793;DHT22;37850;53.178;6.376;2022-10-16T03:59:04;12.60;99.90
51793;DHT22;37850;53.178;6.376;2022-10-16T04:01:30;12.60;99.90
51793;DHT22;37850;53.178;6.376;2022-10-16T04:03:55;12.60;99.90
51793;DHT22;37850;53.178;6.376;2022-10-16T04:06:21;12.60;99.90
51793;DHT22;37850;53.178;6.376;2022-10-16T04:08:47;12.60;99.90
51793;DHT22;37850;53.178;6.376;2022-10-16T04:11:13;12.60;99.90
51793;DHT22;37850;53.178;6.376;2022-10-16T04:13:38;12.60;99.90
51793;DHT22;37850;53.178;6.376;2022-10-16T04:16:04;12.60;99.90
51793;DHT22;37850;53.178;6.376;2022-10-16T04:18:30;12.50;99.90
51793;DHT22;37850;53.178;6.376;2022-10-16T04:20:55;12.50;99.90
51793;DHT22;37850;53.178;6.376;2022-10-16T04:23:21;12.50;99.90
51793;DHT22;37850;53.178;6.376;2022-10-16T04:25:49;12.50;99.90
51793;DHT22;37850;53.178;6.376;2022-10-16T04:28:15;12.50;99.90
51793;DHT22;37850;53.178;6.376;2022-10-16T04:30:40;12.50;99.90
51793;DHT22;37850;53.178;6.376;2022-10-16T04:33:07;12.50;99.90
51793;DHT22;37850;53.178;6.376;2022-10-16T04:35:33;12.50;99.90
51793;DHT22;37850;53.178;6.376;2022-10-16T04:37:59;12.50;99.90
51793;DHT22;37850;53.178;6.376;2022-10-16T04:40:24;12.50;99.90
51793;DHT22;37850;53.178;6.376;2022-10-16T04:42:50;12.50;99.90
51793;DHT22;37850;53.178;6.376;2022-10-16T04:45:16;12.60;99.90
51793;DHT22;37850;53.178;6.376;2022-10-16T04:47:41;12.40;99.90
51793;DHT22;37850;53.178;6.376;2022-10-16T04:50:07;12.50;99.90
51793;DHT22;37850;53.178;6.376;2022-10-16T04:52:33;12.50;99.90
51793;DHT22;37850;53.178;6.376;2022-10-16T04:54:59;12.50;99.90
51793;DHT22;37850;53.178;6.376;2022-10-16T04:57:28;12.50;99.90
51793;DHT22;37850;53.178;6.376;2022-10-16T04:59:53;12.60;99.90
51793;DHT22;37850;53.178;6.376;2022-10-16T05:02:19;12.60;99.90
51793;DHT22;37850;53.178;6.376;2022-10-16T05:04:45;12.60;99.90
51793;DHT22;37850;53.178;6.376;2022-10-16T05:07:11;12.60;99.90
51793;DHT22;37850;53.178;6.376;2022-10-16T05:09:37;12.60;99.90
51793;DHT22;37850;53.178;6.376;2022-10-16T05:12:03;12.60;99.90
51793;DHT22;37850;53.178;6.376;2022-10-16T05:14:29;12.60;99.90
51793;DHT22;37850;53.178;6.376;2022-10-16T05:16:55;12.60;99.90
51793;DHT22;37850;53.178;6.376;2022-10-16T05:19:20;12.60;99.90
51793;DHT22;37850;53.178;6.376;2022-10-16T05:21:46;12.60;99.90
51793;DHT22;37850;53.178;6.376;2022-10-16T05:24:12;12.60;99.90
51793;DHT22;37850;53.178;6.376;2022-10-16T05:26:37;12.70;99.90
51793;DHT22;37850;53.178;6.376;2022-10-16T05:29:04;12.60;99.90
51793;DHT22;37850;53.178;6.376;2022-10-16T05:31:29;12.60;99.90
51793;DHT22;37850;53.178;6.376;2022-10-16T05:33:59;12.60;99.90
51793;DHT22;37850;53.178;6.376;2022-10-16T05:36:25;12.60;99.90
51793;DHT22;37850;53.178;6.376;2022-10-16T05:38:51;12.70;99.90
51793;DHT22;37850;53.178;6.376;2022-10-16T05:41:17;12.60;99.90
51793;DHT22;37850;53.178;6.376;2022-10-16T05:43:48;12.70;99.90
51793;DHT22;37850;53.178;6.376;2022-10-16T05:46:14;12.70;99.90
51793;DHT22;37850;53.178;6.376;2022-10-16T05:48:40;12.70;99.90
51793;DHT22;37850;53.178;6.376;2022-10-16T05:51:08;12.70;99.90
51793;DHT22;37850;53.178;6.376;2022-10-16T05:53:36;12.70;99.90
51793;DHT22;37850;53.178;6.376;2022-10-16T05:56:03;12.70;99.90
51793;DHT22;37850;53.178;6.376;2022-10-16T05:58:33;12.70;99.90
51793;DHT22;37850;53.178;6.376;2022-10-16T06:01:05;12.90;99.90
51793;DHT22;37850;53.178;6.376;2022-10-16T06:03:31;12.70;99.90
51793;DHT22;37850;53.178;6.376;2022-10-16T06:05:56;12.70;99.90
51793;DHT22;37850;53.178;6.376;2022-10-16T06:08:23;12.70;99.90
51793;DHT22;37850;53.178;6.376;2022-10-16T06:10:57;12.70;99.90
51793;DHT22;37850;53.178;6.376;2022-10-16T06:13:25;12.70;99.90
51793;DHT22;37850;53.178;6.376;2022-10-16T06:15:50;12.70;99.90
51793;DHT22;37850;53.178;6.376;2022-10-16T06:18:16;12.70;99.90
51793;DHT22;37850;53.178;6.376;2022-10-16T06:20:42;12.70;99.90
51793;DHT22;37850;53.178;6.376;2022-10-16T06:23:07;12.70;99.90
51793;DHT22;37850;53.178;6.376;2022-10-16T06:25:33;12.70;99.90
51793;DHT22;37850;53.178;6.376;2022-10-16T06:27:59;12.70;99.90
51793;DHT22;37850;53.178;6.376;2022-10-16T06:30:25;12.70;99.90
51793;DHT22;37850;53.178;6.376;2022-10-16T06:32:51;12.70;99.90
51793;DHT22;37850;53.178;6.376;2022-10-16T06:35:16;12.70;99.90
51793;DHT22;37850;53.178;6.376;2022-10-16T06:37:42;12.80;99.90
51793;DHT22;37850;53.178;6.376;2022-10-16T06:40:08;12.80;99.90
51793;DHT22;37850;53.178;6.376;2022-10-16T06:42:33;12.80;99.90
51793;DHT22;37850;53.178;6.376;2022-10-16T06:44:59;12.80;99.90
51793;DHT22;37850;53.178;6.376;2022-10-16T06:47:25;12.80;99.90
51793;DHT22;37850;53.178;6.376;2022-10-16T06:49:51;12.80;99.90
51793;DHT22;37850;53.178;6.376;2022-10-16T06:52:16;12.80;99.90
51793;DHT22;37850;53.178;6.376;2022-10-16T06:54:42;12.80;99.90
51793;DHT22;37850;53.178;6.376;2022-10-16T06:57:08;12.90;99.90
51793;DHT22;37850;53.178;6.376;2022-10-16T06:59:33;12.90;99.90
51793;DHT22;37850;53.178;6.376;2022-10-16T07:01:59;12.90;99.90
51793;DHT22;37850;53.178;6.376;2022-10-16T07:04:25;12.90;99.90
51793;DHT22;37850;53.178;6.376;2022-10-16T07:06:50;12.90;99.90
51793;DHT22;37850;53.178;6.376;2022-10-16T07:09:17;12.90;99.90
51793;DHT22;37850;53.178;6.376;2022-10-16T07:11:42;12.90;99.90
51793;DHT22;37850;53.178;6.376;2022-10-16T07:14:17;12.90;99.90
51793;DHT22;37850;53.178;6.376;2022-10-16T07:16:43;12.90;99.90
51793;DHT22;37850;53.178;6.376;2022-10-16T07:19:08;12.90;99.90
51793;DHT22;37850;53.178;6.376;2022-10-16T07:21:34;13.00;99.90
51793;DHT22;37850;53.178;6.376;2022-10-16T07:24:06;13.00;99.90
51793;DHT22;37850;53.178;6.376;2022-10-16T07:26:34;13.00;99.90
51793;DHT22;37850;53.178;6.376;2022-10-16T07:29:00;13.00;99.90
51793;DHT22;37850;53.178;6.376;2022-10-16T07:31:27;13.00;99.90
51793;DHT22;37850;53.178;6.376;2022-10-16T07:33:53;12.90;99.90
51793;DHT22;37850;53.178;6.376;2022-10-16T07:36:20;12.90;99.90
51793;DHT22;37850;53.178;6.376;2022-10-16T07:38:46;12.90;99.90
51793;DHT22;37850;53.178;6.376;2022-10-16T07:41:14;12.90;99.90
51793;DHT22;37850;53.178;6.376;2022-10-16T07:43:48;12.90;99.90
51793;DHT22;37850;53.178;6.376;2022-10-16T07:46:17;12.90;99.90
51793;DHT22;37850;53.178;6.376;2022-10-16T07:48:44;12.90;99.90
51793;DHT22;37850;53.178;6.376;2022-10-16T07:51:13;12.90;99.90
51793;DHT22;37850;53.178;6.376;2022-10-16T07:53:39;12.90;99.90
51793;DHT22;37850;53.178;6.376;2022-10-16T07:56:06;12.80;99.90
51793;DHT22;37850;53.178;6.376;2022-10-16T07:58:33;12.80;99.90
51793;DHT22;37850;53.178;6.376;2022-10-16T08:01:04;12.80;99.90
51793;DHT22;37850;53.178;6.376;2022-10-16T08:03:30;12.90;99.90
51793;DHT22;37850;53.178;6.376;2022-10-16T08:05:57;12.90;99.90
51793;DHT22;37850;53.178;6.376;2022-10-16T08:08:23;12.90;99.90
51793;DHT22;37850;53.178;6.376;2022-10-16T08:10:49;12.90;99.90
51793;DHT22;37850;53.178;6.376;2022-10-16T08:13:15;13.00;99.90
51793;DHT22;37850;53.178;6.376;2022-10-16T08:15:44;13.10;99.90
51793;DHT22;37850;53.178;6.376;2022-10-16T08:18:12;13.20;99.90
51793;DHT22;37850;53.178;6.376;2022-10-16T08:20:38;13.20;99.90
51793;DHT22;37850;53.178;6.376;2022-10-16T08:23:05;13.40;99.90
51793;DHT22;37850;53.178;6.376;2022-10-16T08:25:31;13.40;99.90
51793;DHT22;37850;53.178;6.376;2022-10-16T08:27:59;13.50;99.90
51793;DHT22;37850;53.178;6.376;2022-10-16T08:30:25;13.70;99.90
51793;DHT22;37850;53.178;6.376;2022-10-16T08:32:50;13.70;99.90
51793;DHT22;37850;53.178;6.376;2022-10-16T08:35:19;13.80;99.90
51793;DHT22;37850;53.178;6.376;2022-10-16T08:37:45;13.80;99.90
51793;DHT22;37850;53.178;6.376;2022-10-16T08:40:32;13.90;99.90
51793;DHT22;37850;53.178;6.376;2022-10-16T08:49:12;14.10;99.90
51793;DHT22;37850;53.178;6.376;2022-10-16T08:51:34;14.10;99.90
51793;DHT22;37850;53.178;6.376;2022-10-16T08:54:05;14.10;99.90
51793;DHT22;37850;53.178;6.376;2022-10-16T08:56:31;14.20;99.90
51793;DHT22;37850;53.178;6.376;2022-10-16T08:58:59;14.30;99.90
51793;DHT22;37850;53.178;6.376;2022-10-16T09:01:44;14.30;99.90
51793;DHT22;37850;53.178;6.376;2022-10-16T09:10:24;14.50;99.90
51793;DHT22;37850;53.178;6.376;2022-10-16T09:23:22;14.50;99.90
51793;DHT22;37850;53.178;6.376;2022-10-16T09:25:50;14.60;99.90
51793;DHT22;37850;53.178;6.376;2022-10-16T09:28:18;14.70;99.90
51793;DHT22;37850;53.178;6.376;2022-10-16T09:30:44;14.70;99.90
51793;DHT22;37850;53.178;6.376;2022-10-16T09:33:12;14.70;99.90
51793;DHT22;37850;53.178;6.376;2022-10-16T09:35:39;14.80;99.90
51793;DHT22;37850;53.178;6.376;2022-10-16T09:38:05;14.80;99.90
51793;DHT22;37850;53.178;6.376;2022-10-16T09:43:25;14.80;99.90
51793;DHT22;37850;53.178;6.376;2022-10-16T09:45:55;14.80;99.90
51793;DHT22;37850;53.178;6.376;2022-10-16T09:48:22;14.80;99.90
51793;DHT22;37850;53.178;6.376;2022-10-16T09:50:57;14.80;99.90
51793;DHT22;37850;53.178;6.376;2022-10-16T09:53:22;14.80;99.90
51793;DHT22;37850;53.178;6.376;2022-10-16T09:55:53;14.80;99.90
51793;DHT22;37850;53.178;6.376;2022-10-16T09:58:22;14.90;99.90
51793;DHT22;37850;53.178;6.376;2022-10-16T10:00:51;15.00;99.90
51793;DHT22;37850;53.178;6.376;2022-10-16T10:03:44;15.10;99.90
51793;DHT22;37850;53.178;6.376;2022-10-16T10:06:21;15.10;99.90
51793;DHT22;37850;53.178;6.376;2022-10-16T10:11:40;15.30;99.90
51793;DHT22;37850;53.178;6.376;2022-10-16T10:16:44;15.40;99.90
51793;DHT22;37850;53.178;6.376;2022-10-16T10:19:19;15.40;99.90
51793;DHT22;37850;53.178;6.376;2022-10-16T10:21:46;15.40;99.90
51793;DHT22;37850;53.178;6.376;2022-10-16T10:24:14;15.50;99.90
51793;DHT22;37850;53.178;6.376;2022-10-16T10:27:02;15.50;99.90
51793;DHT22;37850;53.178;6.376;2022-10-16T10:29:53;15.50;99.90
51793;DHT22;37850;53.178;6.376;2022-10-16T10:35:12;15.50;99.90
51793;DHT22;37850;53.178;6.376;2022-10-16T10:38:06;15.50;99.90
51793;DHT22;37850;53.178;6.376;2022-10-16T10:46:32;15.70;99.90
51793;DHT22;37850;53.178;6.376;2022-10-16T10:49:15;15.70;99.90
51793;DHT22;37850;53.178;6.376;2022-10-16T10:51:56;15.70;99.90
51793;DHT22;37850;53.178;6.376;2022-10-16T11:03:39;15.50;99.90
51793;DHT22;37850;53.178;6.376;2022-10-16T11:06:12;15.50;99.90
51793;DHT22;37850;53.178;6.376;2022-10-16T11:14:11;15.50;99.90
51793;DHT22;37850;53.178;6.376;2022-10-16T11:25:11;15.70;99.90
51793;DHT22;37850;53.178;6.376;2022-10-16T11:27:45;15.70;99.90
51793;DHT22;37850;53.178;6.376;2022-10-16T11:30:38;15.70;99.90
51793;DHT22;37850;53.178;6.376;2022-10-16T11:41:27;15.80;99.90
51793;DHT22;37850;53.178;6.376;2022-10-16T11:46:23;15.80;99.90
51793;DHT22;37850;53.178;6.376;2022-10-16T11:49:00;15.90;99.90
51793;DHT22;37850;53.178;6.376;2022-10-16T11:57:07;16.10;99.90
51793;DHT22;37850;53.178;6.376;2022-10-16T11:59:49;16.10;99.90
51793;DHT22;37850;53.178;6.376;2022-10-16T12:02:49;16.10;99.90
51793;DHT22;37850;53.178;6.376;2022-10-16T12:08:34;16.10;99.90
51793;DHT22;37850;53.178;6.376;2022-10-16T12:13:49;16.10;99.90
51793;DHT22;37850;53.178;6.376;2022-10-16T12:18:43;16.20;99.90
51793;DHT22;37850;53.178;6.376;2022-10-16T12:21:11;16.20;99.90
51793;DHT22;37850;53.178;6.376;2022-10-16T12:23:51;16.30;99.90
51793;DHT22;37850;53.178;6.376;2022-10-16T12:26:44;16.30;99.90
51793;DHT22;37850;53.178;6.376;2022-10-16T12:31:59;16.30;99.90
51793;DHT22;37850;53.178;6.376;2022-10-16T12:34:39;16.20;99.90
51793;DHT22;37850;53.178;6.376;2022-10-16T12:37:14;16.20;99.90
51793;DHT22;37850;53.178;6.376;2022-10-16T12:39:44;16.20;99.90
51793;DHT22;37850;53.178;6.376;2022-10-16T12:44:52;16.10;99.90
51793;DHT22;37850;53.178;6.376;2022-10-16T12:47:46;16.10;99.90
51793;DHT22;37850;53.178;6.376;2022-10-16T12:50:41;16.00;99.90
51793;DHT22;37850;53.178;6.376;2022-10-16T12:53:24;16.10;99.90
51793;DHT22;37850;53.178;6.376;2022-10-16T13:09:43;16.00;99.90
51793;DHT22;37850;53.178;6.376;2022-10-16T13:12:31;15.90;99.90
51793;DHT22;37850;53.178;6.376;2022-10-16T13:15:29;15.90;99.90
51793;DHT22;37850;53.178;6.376;2022-10-16T13:18:16;15.90;99.90
51793;DHT22;37850;53.178;6.376;2022-10-16T13:28:52;15.90;99.90
51793;DHT22;37850;53.178;6.376;2022-10-16T13:31:22;15.90;99.90
51793;DHT22;37850;53.178;6.376;2022-10-16T13:33:52;15.90;99.90
51793;DHT22;37850;53.178;6.376;2022-10-16T13:36:27;15.90;99.90
51793;DHT22;37850;53.178;6.376;2022-10-16T13:39:27;15.90;99.90
51793;DHT22;37850;53.178;6.376;2022-10-16T13:41:46;15.80;99.90
51793;DHT22;37850;53.178;6.376;2022-10-16T13:44:15;15.80;99.90
51793;DHT22;37850;53.178;6.376;2022-10-16T13:46:43;15.80;99.90
51793;DHT22;37850;53.178;6.376;2022-10-16T13:49:15;15.80;99.90
51793;DHT22;37850;53.178;6.376;2022-10-16T13:51:41;15.90;99.90
51793;DHT22;37850;53.178;6.376;2022-10-16T13:54:09;15.90;99.90
51793;DHT22;37850;53.178;6.376;2022-10-16T13:56:39;15.90;99.90
51793;DHT22;37850;53.178;6.376;2022-10-16T13:59:43;15.90;99.90
51793;DHT22;37850;53.178;6.376;2022-10-16T14:04:48;16.00;99.90
51793;DHT22;37850;53.178;6.376;2022-10-16T14:07:23;16.00;99.90
51793;DHT22;37850;53.178;6.376;2022-10-16T14:09:51;16.00;99.90
51793;DHT22;37850;53.178;6.376;2022-10-16T14:12:18;16.00;99.90
51793;DHT22;37850;53.178;6.376;2022-10-16T14:14:54;16.00;99.90
51793;DHT22;37850;53.178;6.376;2022-10-16T14:17:29;16.10;99.90
51793;DHT22;37850;53.178;6.376;2022-10-16T14:19:57;16.00;99.90
51793;DHT22;37850;53.178;6.376;2022-10-16T14:22:33;16.00;99.90
51793;DHT22;37850;53.178;6.376;2022-10-16T14:25:00;16.00;99.90
51793;DHT22;37850;53.178;6.376;2022-10-16T14:27:33;16.00;99.90
51793;DHT22;37850;53.178;6.376;2022-10-16T14:30:14;16.00;99.90
51793;DHT22;37850;53.178;6.376;2022-10-16T14:32:41;16.00;99.90
51793;DHT22;37850;53.178;6.376;2022-10-16T14:37:52;15.90;99.90
51793;DHT22;37850;53.178;6.376;2022-10-16T14:40:18;15.80;99.90
51793;DHT22;37850;53.178;6.376;2022-10-16T14:42:44;15.80;99.90
51793;DHT22;37850;53.178;6.376;2022-10-16T14:45:11;15.70;99.90
51793;DHT22;37850;53.178;6.376;2022-10-16T14:47:54;15.80;99.90
51793;DHT22;37850;53.178;6.376;2022-10-16T14:50:21;15.70;99.90
51793;DHT22;37850;53.178;6.376;2022-10-16T14:52:50;15.70;99.90
51793;DHT22;37850;53.178;6.376;2022-10-16T14:55:16;15.70;99.90
51793;DHT22;37850;53.178;6.376;2022-10-16T14:57:43;15.70;99.90
51793;DHT22;37850;53.178;6.376;2022-10-16T15:00:20;15.60;99.90
51793;DHT22;37850;53.178;6.376;2022-10-16T15:02:48;15.60;99.90
51793;DHT22;37850;53.178;6.376;2022-10-16T15:05:16;15.60;99.90
51793;DHT22;37850;53.178;6.376;2022-10-16T15:07:42;15.50;99.90
51793;DHT22;37850;53.178;6.376;2022-10-16T15:10:09;15.50;99.90
51793;DHT22;37850;53.178;6.376;2022-10-16T15:12:35;15.60;99.90
51793;DHT22;37850;53.178;6.376;2022-10-16T15:15:01;15.50;99.90
51793;DHT22;37850;53.178;6.376;2022-10-16T15:17:26;15.50;99.90
51793;DHT22;37850;53.178;6.376;2022-10-16T15:19:52;15.50;99.90
51793;DHT22;37850;53.178;6.376;2022-10-16T15:22:18;15.50;99.90
51793;DHT22;37850;53.178;6.376;2022-10-16T15:24:43;15.50;99.90
51793;DHT22;37850;53.178;6.376;2022-10-16T15:27:09;15.50;99.90
51793;DHT22;37850;53.178;6.376;2022-10-16T15:29:35;15.50;99.90
51793;DHT22;37850;53.178;6.376;2022-10-16T15:32:01;15.40;99.90
51793;DHT22;37850;53.178;6.376;2022-10-16T15:34:27;15.50;99.90
51793;DHT22;37850;53.178;6.376;2022-10-16T15:36:52;15.40;99.90
51793;DHT22;37850;53.178;6.376;2022-10-16T15:39:20;15.40;99.90
51793;DHT22;37850;53.178;6.376;2022-10-16T15:41:47;15.40;99.90
51793;DHT22;37850;53.178;6.376;2022-10-16T15:44:16;15.30;99.90
51793;DHT22;37850;53.178;6.376;2022-10-16T15:46:42;15.30;99.90
51793;DHT22;37850;53.178;6.376;2022-10-16T15:49:09;15.30;99.90
51793;DHT22;37850;53.178;6.376;2022-10-16T15:51:38;15.30;99.90
51793;DHT22;37850;53.178;6.376;2022-10-16T15:54:04;15.30;99.90
51793;DHT22;37850;53.178;6.376;2022-10-16T15:56:30;15.20;99.90
51793;DHT22;37850;53.178;6.376;2022-10-16T15:58:59;15.20;99.90
51793;DHT22;37850;53.178;6.376;2022-10-16T16:01:25;15.20;99.90
51793;DHT22;37850;53.178;6.376;2022-10-16T16:03:54;15.10;99.90
51793;DHT22;37850;53.178;6.376;2022-10-16T16:06:21;15.10;99.90
51793;DHT22;37850;53.178;6.376;2022-10-16T16:08:49;15.10;99.90
51793;DHT22;37850;53.178;6.376;2022-10-16T16:11:16;14.90;99.90
51793;DHT22;37850;53.178;6.376;2022-10-16T16:13:42;15.00;99.90
51793;DHT22;37850;53.178;6.376;2022-10-16T16:16:10;14.90;99.90
51793;DHT22;37850;53.178;6.376;2022-10-16T16:18:37;14.90;99.90
51793;DHT22;37850;53.178;6.376;2022-10-16T16:21:03;14.90;99.90
51793;DHT22;37850;53.178;6.376;2022-10-16T16:23:30;14.90;99.90
51793;DHT22;37850;53.178;6.376;2022-10-16T16:26:11;14.90;99.90
51793;DHT22;37850;53.178;6.376;2022-10-16T16:28:37;14.80;99.90
51793;DHT22;37850;53.178;6.376;2022-10-16T16:31:03;14.80;99.90
51793;DHT22;37850;53.178;6.376;2022-10-16T16:33:29;14.70;99.90
51793;DHT22;37850;53.178;6.376;2022-10-16T16:36:02;14.70;99.90
51793;DHT22;37850;53.178;6.376;2022-10-16T16:38:29;14.70;99.90
51793;DHT22;37850;53.178;6.376;2022-10-16T16:40:55;14.70;99.90
51793;DHT22;37850;53.178;6.376;2022-10-16T16:43:27;14.50;99.90
51793;DHT22;37850;53.178;6.376;2022-10-16T16:45:54;14.50;99.90
51793;DHT22;37850;53.178;6.376;2022-10-16T16:48:20;14.40;99.90
51793;DHT22;37850;53.178;6.376;2022-10-16T16:50:47;14.30;99.90
51793;DHT22;37850;53.178;6.376;2022-10-16T16:53:12;14.20;99.90
51793;DHT22;37850;53.178;6.376;2022-10-16T16:55:38;14.20;99.90
51793;DHT22;37850;53.178;6.376;2022-10-16T16:58:04;14.10;99.90
51793;DHT22;37850;53.178;6.376;2022-10-16T17:00:30;14.10;99.90
51793;DHT22;37850;53.178;6.376;2022-10-16T17:02:56;14.10;99.90
51793;DHT22;37850;53.178;6.376;2022-10-16T17:05:22;14.00;99.90
51793;DHT22;37850;53.178;6.376;2022-10-16T17:07:48;14.00;99.90
51793;DHT22;37850;53.178;6.376;2022-10-16T17:10:14;13.90;99.90
51793;DHT22;37850;53.178;6.376;2022-10-16T17:12:39;13.90;99.90
51793;DHT22;37850;53.178;6.376;2022-10-16T17:15:06;13.80;99.90
51793;DHT22;37850;53.178;6.376;2022-10-16T17:17:32;13.80;99.90
51793;DHT22;37850;53.178;6.376;2022-10-16T17:19:58;13.70;99.90
51793;DHT22;37850;53.178;6.376;2022-10-16T17:22:23;13.70;99.90
51793;DHT22;37850;53.178;6.376;2022-10-16T17:24:50;13.70;99.90
51793;DHT22;37850;53.178;6.376;2022-10-16T17:27:18;13.60;99.90
51793;DHT22;37850;53.178;6.376;2022-10-16T17:29:44;13.50;99.90
51793;DHT22;37850;53.178;6.376;2022-10-16T17:32:10;13.50;99.90
51793;DHT22;37850;53.178;6.376;2022-10-16T17:34:36;13.50;99.90
51793;DHT22;37850;53.178;6.376;2022-10-16T17:37:02;13.50;99.90
51793;DHT22;37850;53.178;6.376;2022-10-16T17:39:28;13.40;99.90
51793;DHT22;37850;53.178;6.376;2022-10-16T17:41:53;13.40;99.90
51793;DHT22;37850;53.178;6.376;2022-10-16T17:44:20;13.40;99.90
51793;DHT22;37850;53.178;6.376;2022-10-16T17:46:50;13.40;99.90
51793;DHT22;37850;53.178;6.376;2022-10-16T17:49:17;13.30;99.90
51793;DHT22;37850;53.178;6.376;2022-10-16T17:51:43;13.30;99.90
51793;DHT22;37850;53.178;6.376;2022-10-16T17:54:09;13.20;99.90
51793;DHT22;37850;53.178;6.376;2022-10-16T17:56:36;13.20;99.90
51793;DHT22;37850;53.178;6.376;2022-10-16T17:59:03;13.20;99.90